createdAt,value
2018-04-29T00:01:53.359Z,8.93
2018-04-29T00:04:21.899Z,8.13
2018-04-29T00:06:51.561Z,8.50
2018-04-29T00:09:19.815Z,7.50
2018-04-29T00:11:48.194Z,7.80
2018-04-29T00:14:17.440Z,7.73
2018-04-29T00:16:45.714Z,8.03
2018-04-29T00:19:13.982Z,7.37
2018-04-29T00:21:42.073Z,8.13
2018-04-29T00:24:10.344Z,8.03
2018-04-29T00:26:38.610Z,8.00
2018-04-29T00:29:07.251Z,8.67
2018-04-29T00:31:35.951Z,8.50
2018-04-29T00:34:04.194Z,8.33
2018-04-29T00:36:32.487Z,8.40
2018-04-29T00:39:02.919Z,8.00
2018-04-29T00:41:31.192Z,8.27
2018-04-29T00:44:00.459Z,7.73
2018-04-29T00:46:28.795Z,8.30
2018-04-29T00:48:57.053Z,7.20
2018-04-29T00:51:46.946Z,8.13
2018-04-29T00:54:15.228Z,8.10
2018-04-29T00:56:43.515Z,7.80
2018-04-29T00:59:11.758Z,8.67
2018-04-29T01:01:40.055Z,8.13
2018-04-29T01:04:08.915Z,8.33
2018-04-29T01:06:37.190Z,7.90
2018-04-29T01:09:06.470Z,8.50
2018-04-29T01:11:34.743Z,8.27
2018-04-29T01:14:03.058Z,8.53
2018-04-29T01:16:31.327Z,8.87
2018-04-29T01:18:59.629Z,9.13
2018-04-29T01:21:27.914Z,9.07
2018-04-29T01:23:56.169Z,9.93
2018-04-29T01:26:24.486Z,9.03
2018-04-29T01:28:52.754Z,8.63
2018-04-29T01:31:21.044Z,9.73
2018-04-29T01:33:49.907Z,9.73
2018-04-29T01:36:18.770Z,9.93
2018-04-29T01:38:47.791Z,10.27
2018-04-29T01:41:16.059Z,9.47
2018-04-29T01:43:44.302Z,9.80
2018-04-29T01:46:13.366Z,9.80
2018-04-29T01:48:41.631Z,10.80
2018-04-29T01:51:09.895Z,10.37
2018-04-29T01:53:38.158Z,9.87
2018-04-29T01:56:07.817Z,10.60
2018-04-29T01:58:35.902Z,9.97
2018-04-29T02:01:04.193Z,10.10
2018-04-29T02:03:33.183Z,10.53
2018-04-29T02:06:01.456Z,10.13
2018-04-29T02:08:29.531Z,10.30
2018-04-29T02:10:57.806Z,10.37
2018-04-29T02:13:26.108Z,10.83
2018-04-29T02:15:54.413Z,10.70
2018-04-29T02:18:22.681Z,11.43
2018-04-29T02:20:50.982Z,11.00
2018-04-29T02:23:19.240Z,11.87
2018-04-29T02:25:47.292Z,11.40
2018-04-29T02:28:15.649Z,11.03
2018-04-29T02:30:44.032Z,11.57
2018-04-29T02:33:12.968Z,12.33
2018-04-29T02:35:41.226Z,11.43
2018-04-29T02:38:09.511Z,11.80
2018-04-29T02:40:37.771Z,12.20
2018-04-29T02:43:06.052Z,11.03
2018-04-29T02:45:34.193Z,12.60
2018-04-29T02:48:02.471Z,11.83
2018-04-29T02:50:30.833Z,12.90
2018-04-29T02:52:59.127Z,11.83
2018-04-29T02:55:27.385Z,11.87
2018-04-29T02:57:55.821Z,11.20
2018-04-29T03:00:24.102Z,12.03
2018-04-29T03:02:52.375Z,11.53
2018-04-29T03:05:20.634Z,10.60
2018-04-29T03:07:49.633Z,12.97
2018-04-29T03:10:17.892Z,11.90
2018-04-29T03:12:45.970Z,13.07
2018-04-29T03:15:14.223Z,12.47
2018-04-29T03:17:42.950Z,12.07
2018-04-29T03:20:11.571Z,12.90
2018-04-29T03:22:39.859Z,12.60
2018-04-29T03:25:08.119Z,12.60
2018-04-29T03:27:36.396Z,13.63
2018-04-29T03:30:05.823Z,14.97
2018-04-29T03:32:34.097Z,13.40
2018-04-29T03:35:03.330Z,13.63
2018-04-29T03:37:32.841Z,13.97
2018-04-29T03:40:01.534Z,13.07
2018-04-29T03:42:30.397Z,14.30
2018-04-29T03:44:58.653Z,13.63
2018-04-29T03:47:26.932Z,14.33
2018-04-29T03:49:55.191Z,15.17
2018-04-29T03:52:23.274Z,14.00
2018-04-29T03:54:51.816Z,13.60
2018-04-29T03:57:31.351Z,15.07
2018-04-29T04:00:11.165Z,15.17
2018-04-29T04:02:50.835Z,15.03
2018-04-29T04:05:19.262Z,14.57
2018-04-29T04:07:47.540Z,14.50
2018-04-29T04:10:16.876Z,13.47
2018-04-29T04:12:45.153Z,14.90
2018-04-29T04:15:13.407Z,13.63
2018-04-29T04:17:42.464Z,14.90
2018-04-29T04:20:11.280Z,13.83
2018-04-29T04:22:40.002Z,13.80
2018-04-29T04:25:08.263Z,14.83
2018-04-29T04:27:36.537Z,14.60
2018-04-29T04:30:04.547Z,14.23
2018-04-29T04:32:32.830Z,14.03
2018-04-29T04:35:00.870Z,15.00
2018-04-29T04:37:29.146Z,13.37
2018-04-29T04:39:57.194Z,13.43
2018-04-29T04:42:25.473Z,14.07
2018-04-29T04:44:53.743Z,13.23
2018-04-29T04:47:22.012Z,13.13
2018-04-29T04:49:50.323Z,13.67
2018-04-29T04:52:18.735Z,13.53
2018-04-29T04:54:47.609Z,13.60
2018-04-29T04:57:16.355Z,13.73
2018-04-29T04:59:45.182Z,13.10
2018-04-29T05:02:14.286Z,13.30
2018-04-29T05:04:42.558Z,14.03
2018-04-29T05:07:10.809Z,14.37
2018-04-29T05:09:39.087Z,13.67
2018-04-29T05:12:07.127Z,14.60
2018-04-29T05:14:36.174Z,14.57
2018-04-29T05:17:03.951Z,13.93
2018-04-29T05:19:31.994Z,13.30
2018-04-29T05:22:00.247Z,14.13
2018-04-29T05:24:28.279Z,13.97
2018-04-29T05:26:56.536Z,15.13
2018-04-29T05:29:24.807Z,14.07
2018-04-29T05:31:52.823Z,15.57
2018-04-29T05:34:21.097Z,15.03
2018-04-29T05:36:49.342Z,14.07
2018-04-29T05:39:17.613Z,14.30
2018-04-29T05:41:45.994Z,12.90
2018-04-29T05:44:14.266Z,14.80
2018-04-29T05:46:42.539Z,13.30
2018-04-29T05:49:10.831Z,14.10
2018-04-29T05:51:38.866Z,13.53
2018-04-29T05:54:07.516Z,13.30
2018-04-29T05:56:35.811Z,12.23
2018-04-29T05:59:04.110Z,13.70
2018-04-29T06:01:32.371Z,11.57
2018-04-29T06:04:00.739Z,11.87
2018-04-29T06:06:29.050Z,11.83
2018-04-29T06:08:57.468Z,10.83
2018-04-29T06:11:25.736Z,11.13
2018-04-29T06:13:54.510Z,10.50
2018-04-29T06:16:22.766Z,10.23
2018-04-29T06:18:51.039Z,10.57
2018-04-29T06:21:20.090Z,9.23
2018-04-29T06:23:48.395Z,9.07
2018-04-29T06:26:16.695Z,8.67
2018-04-29T06:28:45.138Z,9.10
2018-04-29T06:31:14.237Z,9.10
2018-04-29T06:33:42.597Z,8.67
2018-04-29T06:36:10.923Z,9.03
2018-04-29T06:38:39.973Z,7.97
2018-04-29T06:41:08.227Z,8.37
2018-04-29T06:43:36.499Z,8.83
2018-04-29T06:46:04.519Z,8.33
2018-04-29T06:48:33.826Z,8.43
2018-04-29T06:51:02.073Z,8.13
2018-04-29T06:53:30.511Z,8.20
2018-04-29T06:55:58.930Z,8.33
2018-04-29T06:58:27.202Z,7.83
2018-04-29T07:00:59.567Z,8.13
2018-04-29T07:03:27.841Z,8.30
2018-04-29T07:05:56.090Z,8.60
2018-04-29T07:08:24.351Z,7.67
2018-04-29T07:10:52.640Z,7.97
2018-04-29T07:13:20.898Z,8.40
2018-04-29T07:15:49.191Z,8.70
2018-04-29T07:18:18.243Z,7.17
2018-04-29T07:20:46.511Z,7.10
2018-04-29T07:23:14.798Z,6.57
2018-04-29T07:25:43.056Z,6.87
2018-04-29T07:28:11.319Z,7.37
2018-04-29T07:30:39.617Z,6.37
2018-04-29T07:33:07.901Z,6.73
2018-04-29T07:35:37.003Z,7.13
2018-04-29T07:38:05.264Z,7.30
2018-04-29T07:40:33.532Z,6.43
2018-04-29T07:43:01.798Z,7.50
2018-04-29T07:45:30.908Z,7.30
2018-04-29T07:47:59.175Z,6.97
2018-04-29T07:50:27.453Z,8.43
2018-04-29T07:52:55.767Z,7.73
2018-04-29T07:55:24.303Z,7.30
2018-04-29T07:57:53.371Z,7.80
2018-04-29T08:00:22.512Z,7.67
2018-04-29T08:02:50.595Z,8.33
2018-04-29T08:05:18.874Z,7.43
2018-04-29T08:07:48.442Z,7.60
2018-04-29T08:10:16.719Z,8.57
2018-04-29T08:12:44.970Z,8.10
2018-04-29T08:15:13.286Z,8.37
2018-04-29T08:17:41.551Z,8.73
2018-04-29T08:20:12.495Z,9.10
2018-04-29T08:22:40.827Z,8.60
2018-04-29T08:25:09.294Z,8.90
2018-04-29T08:27:37.591Z,8.03
2018-04-29T08:30:05.715Z,8.00
2018-04-29T08:32:34.878Z,9.10
2018-04-29T08:35:03.155Z,8.67
2018-04-29T08:37:31.412Z,9.10
2018-04-29T08:39:59.696Z,9.73
2018-04-29T08:42:27.963Z,9.47
2018-04-29T08:44:56.259Z,8.60
2018-04-29T08:47:25.283Z,10.23
2018-04-29T08:49:55.323Z,10.90
2018-04-29T08:52:23.606Z,11.73
2018-04-29T08:54:51.887Z,10.33
2018-04-29T08:57:20.154Z,10.67
2018-04-29T08:59:47.816Z,10.07
2018-04-29T09:02:17.762Z,10.63
2018-04-29T09:04:46.045Z,9.80
2018-04-29T09:07:14.303Z,9.47
2018-04-29T09:09:43.622Z,8.65
2018-04-29T09:12:12.060Z,8.67
2018-04-29T09:14:41.140Z,8.87
2018-04-29T09:17:09.533Z,8.97
2018-04-29T09:19:39.304Z,7.93
2018-04-29T09:22:10.882Z,8.03
2018-04-29T09:24:40.019Z,8.60
2018-04-29T09:27:08.307Z,7.63
2018-04-29T09:29:36.565Z,7.47
2018-04-29T09:32:04.838Z,8.70
2018-04-29T09:34:33.852Z,7.93
2018-04-29T09:37:02.237Z,7.83
2018-04-29T09:39:30.403Z,8.20
2018-04-29T09:41:59.592Z,8.40
2018-04-29T09:44:27.621Z,7.57
2018-04-29T09:46:55.947Z,8.07
2018-04-29T09:49:24.202Z,10.30
2018-04-29T09:51:52.251Z,9.10
2018-04-29T09:54:20.499Z,8.73
2018-04-29T09:56:48.787Z,7.77
2018-04-29T09:59:16.940Z,8.43
2018-04-29T10:01:50.678Z,8.33
2018-04-29T10:04:19.206Z,8.38
2018-04-29T10:06:47.490Z,8.67
2018-04-29T10:09:15.747Z,8.73
2018-04-29T10:11:44.781Z,8.27
2018-04-29T10:14:13.041Z,8.87
2018-04-29T10:16:41.317Z,9.00
2018-04-29T10:19:09.615Z,9.47
2018-04-29T10:21:37.899Z,7.80
2018-04-29T10:24:06.159Z,7.33
2018-04-29T10:26:34.447Z,6.80
2018-04-29T10:29:02.706Z,6.90
2018-04-29T10:31:31.466Z,7.33
2018-04-29T10:33:59.727Z,6.63
2018-04-29T10:36:28.010Z,7.03
2018-04-29T10:38:55.839Z,7.30
2018-04-29T10:41:24.111Z,5.77
2018-04-29T10:43:52.371Z,7.13
2018-04-29T10:46:20.650Z,6.07
2018-04-29T10:48:48.937Z,4.93
2018-04-29T10:51:17.211Z,5.83
2018-04-29T10:53:45.462Z,5.97
2018-04-29T10:56:14.027Z,5.87
2018-04-29T10:58:42.302Z,6.53
2018-04-29T11:01:10.766Z,5.40
2018-04-29T11:03:39.018Z,5.70
2018-04-29T11:06:07.703Z,5.30
2018-04-29T11:08:35.975Z,4.90
2018-04-29T11:11:04.239Z,5.33
2018-04-29T11:13:32.495Z,4.70
2018-04-29T11:16:01.040Z,4.80
2018-04-29T11:18:29.287Z,4.97
2018-04-29T11:20:57.531Z,4.20
2018-04-29T11:23:26.567Z,4.20
2018-04-29T11:25:54.843Z,4.00
2018-04-29T11:28:23.096Z,4.00
2018-04-29T11:30:51.344Z,4.33
2018-04-29T11:33:19.624Z,4.43
2018-04-29T11:35:47.871Z,4.10
2018-04-29T11:38:16.153Z,3.67
2018-04-29T11:40:44.494Z,4.10
2018-04-29T11:43:12.902Z,4.40
2018-04-29T11:45:41.219Z,3.90
2018-04-29T11:48:10.379Z,4.47
2018-04-29T11:50:38.622Z,4.03
2018-04-29T11:53:06.919Z,4.57
2018-04-29T11:55:35.166Z,4.07
2018-04-29T11:58:03.489Z,3.90
2018-04-29T12:00:31.794Z,3.70
2018-04-29T12:03:00.075Z,4.03
2018-04-29T12:05:28.332Z,3.50
2018-04-29T12:07:56.615Z,4.07
2018-04-29T12:10:25.723Z,3.73
2018-04-29T12:12:53.993Z,4.03
2018-04-29T12:15:22.247Z,4.20
2018-04-29T12:17:50.298Z,3.93
2018-04-29T12:20:18.569Z,3.60
2018-04-29T12:22:47.970Z,4.47
2018-04-29T12:25:16.228Z,3.37
2018-04-29T12:27:44.508Z,3.13
2018-04-29T12:30:13.270Z,5.10
2018-04-29T12:32:41.568Z,5.90
2018-04-29T12:35:10.972Z,6.23
2018-04-29T12:37:39.288Z,4.83
2018-04-29T12:40:07.533Z,3.77
2018-04-29T12:42:36.373Z,4.17
2018-04-29T12:45:06.010Z,3.77
2018-04-29T12:47:35.302Z,3.30
2018-04-29T12:50:03.458Z,5.23
2018-04-29T12:52:32.859Z,4.40
2018-04-29T12:55:01.935Z,3.53
2018-04-29T12:57:30.231Z,4.37
2018-04-29T12:59:58.521Z,3.77
2018-04-29T13:02:26.971Z,4.23
2018-04-29T13:04:55.263Z,5.00
2018-04-29T13:07:23.598Z,4.97
2018-04-29T13:09:53.646Z,3.20
2018-04-29T13:12:22.339Z,3.77
2018-04-29T13:14:53.050Z,4.50
2018-04-29T13:17:22.262Z,4.07
2018-04-29T13:19:50.519Z,3.20
2018-04-29T13:22:19.587Z,3.50
2018-04-29T13:24:47.854Z,3.03
2018-04-29T13:27:16.131Z,3.30
2018-04-29T13:29:44.388Z,2.80
2018-04-29T13:32:12.640Z,3.07
2018-04-29T13:34:40.934Z,2.80
2018-04-29T13:37:09.189Z,2.80
2018-04-29T13:39:37.459Z,2.73
2018-04-29T13:42:05.722Z,2.93
2018-04-29T13:44:34.183Z,3.03
2018-04-29T13:47:02.434Z,2.97
2018-04-29T13:49:30.717Z,3.00
2018-04-29T13:51:58.972Z,2.73
2018-04-29T13:54:27.238Z,2.97
2018-04-29T13:56:55.502Z,2.93
2018-04-29T13:59:23.767Z,3.37
2018-04-29T14:01:52.069Z,2.93
2018-04-29T14:04:20.342Z,2.87
2018-04-29T14:06:49.543Z,2.70
2018-04-29T14:09:17.814Z,3.60
2018-04-29T14:11:46.063Z,3.77
2018-04-29T14:14:14.350Z,2.87
2018-04-29T14:16:42.604Z,3.53
2018-04-29T14:19:10.887Z,3.50
2018-04-29T14:21:39.135Z,2.90
2018-04-29T14:24:07.411Z,3.10
2018-04-29T14:26:35.662Z,3.50
2018-04-29T14:29:03.710Z,4.80
2018-04-29T14:31:31.964Z,3.77
2018-04-29T14:34:00.236Z,4.97
2018-04-29T14:36:28.491Z,3.33
2018-04-29T14:38:56.776Z,4.13
2018-04-29T14:41:26.003Z,4.03
2018-04-29T14:43:55.699Z,4.43
2018-04-29T14:46:23.990Z,4.47
2018-04-29T14:48:52.631Z,3.53
2018-04-29T14:51:22.574Z,3.07
2018-04-29T14:53:51.219Z,3.70
2018-04-29T14:56:20.283Z,4.80
2018-04-29T14:58:50.154Z,3.93
2018-04-29T15:01:18.501Z,3.60
2018-04-29T15:03:46.878Z,3.40
2018-04-29T15:06:15.134Z,3.33
2018-04-29T15:08:43.421Z,3.83
2018-04-29T15:11:11.670Z,3.90
2018-04-29T15:13:39.983Z,4.73
2018-04-29T15:16:08.269Z,3.50
2018-04-29T15:18:47.931Z,3.93
2018-04-29T15:21:16.180Z,3.33
2018-04-29T15:23:44.450Z,4.27
2018-04-29T15:26:12.714Z,4.20
2018-04-29T15:28:41.419Z,4.03
2018-04-29T15:31:09.672Z,4.27
2018-04-29T15:33:37.983Z,3.57
2018-04-29T15:36:06.235Z,3.90
2018-04-29T15:38:34.522Z,3.83
2018-04-29T15:41:02.795Z,3.33
2018-04-29T15:43:31.071Z,3.77
2018-04-29T15:45:59.356Z,3.70
2018-04-29T15:48:27.608Z,2.97
2018-04-29T15:50:55.640Z,3.37
2018-04-29T15:53:24.707Z,3.63
2018-04-29T15:55:53.000Z,2.90
2018-04-29T15:58:21.270Z,3.10
2018-04-29T16:00:50.469Z,3.50
2018-04-29T16:03:19.490Z,3.43
2018-04-29T16:05:47.760Z,3.60
2018-04-29T16:08:16.026Z,2.90
2018-04-29T16:10:44.299Z,3.10
2018-04-29T16:13:13.399Z,4.27
2018-04-29T16:15:41.438Z,3.47
2018-04-29T16:18:09.692Z,6.00
2018-04-29T16:20:37.967Z,3.10
2018-04-29T16:23:07.791Z,6.43
2018-04-29T16:25:36.875Z,5.93
2018-04-29T16:28:05.848Z,3.90
2018-04-29T16:30:35.085Z,4.03
2018-04-29T16:33:05.289Z,4.60
2018-04-29T16:35:33.653Z,6.03
2018-04-29T16:38:03.178Z,5.13
2018-04-29T16:40:34.335Z,6.73
2018-04-29T16:43:03.043Z,3.63
2018-04-29T16:45:31.454Z,5.60
2018-04-29T16:47:59.719Z,6.20
2018-04-29T16:50:28.003Z,5.87
2018-04-29T16:52:56.047Z,4.20
2018-04-29T16:55:24.393Z,5.30
2018-04-29T16:57:52.400Z,4.37
2018-04-29T17:00:21.368Z,3.17
2018-04-29T17:02:49.619Z,3.80
2018-04-29T17:05:18.739Z,4.00
2018-04-29T17:07:47.014Z,3.60
2018-04-29T17:10:15.287Z,3.33
2018-04-29T17:12:44.308Z,3.23
2018-04-29T17:15:12.579Z,3.40
2018-04-29T17:17:40.836Z,3.90
2018-04-29T17:20:09.127Z,3.60
2018-04-29T17:22:37.372Z,3.73
2018-04-29T17:25:05.691Z,3.70
2018-04-29T17:27:33.947Z,3.40
2018-04-29T17:30:02.215Z,3.30
2018-04-29T17:32:30.468Z,3.50
2018-04-29T17:34:58.751Z,3.20
2018-04-29T17:37:27.406Z,3.90
2018-04-29T17:39:57.866Z,4.57
2018-04-29T17:42:26.242Z,4.33
2018-04-29T17:44:54.513Z,3.30
2018-04-29T17:47:22.784Z,3.83
2018-04-29T17:49:51.049Z,3.43
2018-04-29T17:52:19.305Z,3.60
2018-04-29T17:54:47.590Z,3.87
2018-04-29T17:57:15.831Z,3.93
2018-04-29T17:59:44.087Z,3.13
2018-04-29T18:02:12.355Z,3.80
2018-04-29T18:04:41.020Z,4.10
2018-04-29T18:07:09.299Z,4.60
2018-04-29T18:09:38.356Z,3.50
2018-04-29T18:12:07.423Z,3.43
2018-04-29T18:14:35.676Z,3.93
2018-04-29T18:17:06.402Z,4.13
2018-04-29T18:19:34.811Z,4.93
2018-04-29T18:22:03.079Z,4.00
2018-04-29T18:24:31.331Z,3.90
2018-04-29T18:26:59.621Z,3.80
2018-04-29T18:29:28.634Z,3.60
2018-04-29T18:31:56.911Z,4.20
2018-04-29T18:34:25.158Z,4.47
2018-04-29T18:36:53.425Z,3.80
2018-04-29T18:39:21.675Z,3.80
2018-04-29T18:41:49.952Z,3.70
2018-04-29T18:44:18.205Z,4.40
2018-04-29T18:46:46.513Z,4.83
2018-04-29T18:49:14.762Z,4.37
2018-04-29T18:51:43.126Z,4.10
2018-04-29T18:54:11.484Z,4.10
2018-04-29T18:56:39.765Z,4.47
2018-04-29T18:59:08.018Z,4.47
2018-04-29T19:01:36.752Z,5.00
2018-04-29T19:04:05.023Z,4.90
2018-04-29T19:06:33.333Z,4.50
2018-04-29T19:09:01.592Z,5.73
2018-04-29T19:11:30.813Z,5.17
2018-04-29T19:13:59.078Z,4.60
2018-04-29T19:16:27.103Z,4.17
2018-04-29T19:18:55.351Z,4.50
2018-04-29T19:21:23.623Z,4.67
2018-04-29T19:23:51.956Z,3.90
2018-04-29T19:26:20.349Z,4.27
2018-04-29T19:28:48.599Z,4.93
2018-04-29T19:31:17.704Z,5.27
2018-04-29T19:33:46.094Z,4.50
2018-04-29T19:36:14.366Z,4.70
2018-04-29T19:38:42.747Z,5.10
2018-04-29T19:41:11.038Z,4.80
2018-04-29T19:43:39.298Z,4.33
2018-04-29T19:46:07.558Z,4.70
2018-04-29T19:48:35.814Z,4.97
2018-04-29T19:51:04.917Z,4.57
2018-04-29T19:53:33.170Z,5.17
2018-04-29T19:56:01.451Z,5.17
2018-04-29T19:58:29.708Z,4.40
2018-04-29T20:00:57.956Z,5.10
2018-04-29T20:03:26.308Z,5.37
2018-04-29T20:05:54.583Z,4.37
2018-04-29T20:08:22.860Z,4.80
2018-04-29T20:10:51.107Z,4.60
2018-04-29T20:13:19.404Z,4.90
2018-04-29T20:15:47.684Z,4.77
2018-04-29T20:18:15.960Z,5.27
2018-04-29T20:20:44.220Z,4.70
2018-04-29T20:23:12.503Z,4.93
2018-04-29T20:25:40.758Z,5.03
2018-04-29T20:28:09.039Z,5.20
2018-04-29T20:30:37.286Z,5.73
2018-04-29T20:33:05.565Z,5.00
2018-04-29T20:35:33.843Z,5.03
2018-04-29T20:38:02.153Z,4.87
2018-04-29T20:40:30.559Z,5.63
2018-04-29T20:42:58.835Z,5.20
2018-04-29T20:45:27.091Z,4.60
2018-04-29T20:47:55.400Z,5.40
2018-04-29T20:50:23.662Z,5.27
2018-04-29T20:52:51.934Z,5.47
2018-04-29T20:55:20.227Z,5.60
2018-04-29T20:57:48.431Z,5.73
2018-04-29T21:00:16.693Z,5.43
2018-04-29T21:02:44.967Z,4.93
2018-04-29T21:05:13.225Z,5.00
2018-04-29T21:07:41.270Z,5.90
2018-04-29T21:10:09.545Z,5.77
2018-04-29T21:12:37.835Z,6.00
2018-04-29T21:15:06.101Z,5.27
2018-04-29T21:17:34.400Z,6.10
2018-04-29T21:20:02.825Z,5.83
2018-04-29T21:22:31.141Z,5.73
2018-04-29T21:24:59.556Z,5.77
2018-04-29T21:27:27.826Z,6.17
2018-04-29T21:29:56.083Z,6.57
2018-04-29T21:32:24.363Z,6.17
2018-04-29T21:34:52.634Z,6.40
2018-04-29T21:37:20.914Z,5.67
2018-04-29T21:39:49.179Z,5.73
2018-04-29T21:42:17.488Z,6.27
2018-04-29T21:44:46.451Z,6.20
2018-04-29T21:47:14.726Z,6.60
2018-04-29T21:49:42.980Z,6.30
2018-04-29T21:52:12.034Z,6.43
2018-04-29T21:54:41.057Z,6.03
2018-04-29T21:57:09.323Z,6.33
2018-04-29T21:59:37.354Z,6.10
2018-04-29T22:02:05.614Z,6.33
2018-04-29T22:04:34.810Z,7.83
2018-04-29T22:07:03.071Z,6.33
2018-04-29T22:09:31.093Z,6.20
2018-04-29T22:12:00.459Z,6.20
2018-04-29T22:14:28.730Z,7.30
2018-04-29T22:16:57.005Z,6.83
2018-04-29T22:19:25.287Z,6.73
2018-04-29T22:21:54.428Z,6.77
2018-04-29T22:24:23.047Z,6.20
2018-04-29T22:26:51.738Z,7.43
2018-04-29T22:29:20.204Z,6.80
2018-04-29T22:31:48.474Z,7.03
2018-04-29T22:34:17.401Z,6.60
2018-04-29T22:36:45.666Z,6.50
2018-04-29T22:39:13.953Z,6.53
2018-04-29T22:41:42.215Z,6.77
2018-04-29T22:44:10.486Z,6.77
2018-04-29T22:46:38.738Z,6.70
2018-04-29T22:49:07.463Z,7.33
2018-04-29T22:51:35.791Z,6.13
2018-04-29T22:54:04.079Z,7.10
2018-04-29T22:56:32.331Z,7.20
2018-04-29T22:59:00.614Z,6.70
2018-04-29T23:01:28.864Z,6.23
2018-04-29T23:03:57.958Z,7.30
2018-04-29T23:06:26.380Z,6.83
2018-04-29T23:08:54.689Z,7.10
2018-04-29T23:11:23.711Z,7.40
2018-04-29T23:13:52.002Z,7.87
2018-04-29T23:16:20.255Z,6.67
2018-04-29T23:18:49.606Z,7.37
2018-04-29T23:21:17.855Z,7.43
2018-04-29T23:23:46.132Z,8.90
2018-04-29T23:26:14.407Z,8.23
2018-04-29T23:28:42.926Z,8.77
2018-04-29T23:31:11.191Z,9.07
2018-04-29T23:33:39.459Z,9.20
2018-04-29T23:36:07.727Z,10.07
2018-04-29T23:38:35.995Z,10.57
2018-04-29T23:41:04.051Z,11.13
2018-04-29T23:43:32.331Z,10.50
2018-04-29T23:46:01.264Z,11.03
2018-04-29T23:48:29.546Z,12.03
2018-04-29T23:50:58.372Z,11.43
2018-04-29T23:53:26.656Z,11.90
2018-04-29T23:55:55.691Z,12.17
2018-04-29T23:58:23.991Z,12.73
